sensor_id;sensor_type;location;lat;lon;timestamp;temperature;humidity
11855;DHT22;5987;53.140;8.904;2023-07-20T00:01:46;16.00;99.90
11855;DHT22;5987;53.140;8.904;2023-07-20T00:05:09;16.00;99.90
11855;DHT22;5987;53.140;8.904;2023-07-20T00:08:12;16.00;99.90
11855;DHT22;5987;53.140;8.904;2023-07-20T00:11:16;16.00;99.90
11855;DHT22;5987;53.140;8.904;2023-07-20T00:14:20;16.10;99.90
11855;DHT22;5987;53.140;8.904;2023-07-20T00:17:24;16.10;99.90
11855;DHT22;5987;53.140;8.904;2023-07-20T00:20:29;16.10;99.90
11855;DHT22;5987;53.140;8.904;2023-07-20T00:23:33;16.00;99.90
11855;DHT22;5987;53.140;8.904;2023-07-20T00:26:37;16.00;99.90
11855;DHT22;5987;53.140;8.904;2023-07-20T00:29:41;16.00;99.90
11855;DHT22;5987;53.140;8.904;2023-07-20T00:32:44;15.80;99.90
11855;DHT22;5987;53.140;8.904;2023-07-20T00:35:49;15.80;99.90
11855;DHT22;5987;53.140;8.904;2023-07-20T00:38:54;15.90;99.90
11855;DHT22;5987;53.140;8.904;2023-07-20T00:41:58;15.90;99.90
11855;DHT22;5987;53.140;8.904;2023-07-20T00:45:02;15.80;99.90
11855;DHT22;5987;53.140;8.904;2023-07-20T00:48:08;15.60;99.90
11855;DHT22;5987;53.140;8.904;2023-07-20T00:51:13;15.50;99.90
11855;DHT22;5987;53.140;8.904;2023-07-20T00:54:17;15.40;99.90
11855;DHT22;5987;53.140;8.904;2023-07-20T00:57:21;15.40;99.90
11855;DHT22;5987;53.140;8.904;2023-07-20T01:00:27;15.40;99.90
11855;DHT22;5987;53.140;8.904;2023-07-20T01:03:30;15.40;99.90
11855;DHT22;5987;53.140;8.904;2023-07-20T01:06:41;15.40;99.90
11855;DHT22;5987;53.140;8.904;2023-07-20T01:09:57;15.40;99.90
11855;DHT22;5987;53.140;8.904;2023-07-20T01:13:10;15.30;99.90
11855;DHT22;5987;53.140;8.904;2023-07-20T01:16:14;15.30;99.90
11855;DHT22;5987;53.140;8.904;2023-07-20T01:19:18;15.30;99.90
11855;DHT22;5987;53.140;8.904;2023-07-20T01:22:40;15.20;99.90
11855;DHT22;5987;53.140;8.904;2023-07-20T01:26:34;15.10;99.90
11855;DHT22;5987;53.140;8.904;2023-07-20T01:29:58;15.20;99.90
11855;DHT22;5987;53.140;8.904;2023-07-20T01:33:17;15.30;99.90
11855;DHT22;5987;53.140;8.904;2023-07-20T01:36:24;15.30;99.90
11855;DHT22;5987;53.140;8.904;2023-07-20T01:39:31;15.20;99.90
11855;DHT22;5987;53.140;8.904;2023-07-20T01:42:36;15.20;99.90
11855;DHT22;5987;53.140;8.904;2023-07-20T01:45:40;15.30;99.90
11855;DHT22;5987;53.140;8.904;2023-07-20T01:48:45;15.30;99.90
11855;DHT22;5987;53.140;8.904;2023-07-20T01:51:49;15.30;99.90
11855;DHT22;5987;53.140;8.904;2023-07-20T01:54:52;15.40;99.90
11855;DHT22;5987;53.140;8.904;2023-07-20T01:57:56;15.40;99.90
11855;DHT22;5987;53.140;8.904;2023-07-20T02:01:01;15.30;99.90
11855;DHT22;5987;53.140;8.904;2023-07-20T02:04:06;15.30;99.90
11855;DHT22;5987;53.140;8.904;2023-07-20T02:07:10;15.20;99.90
11855;DHT22;5987;53.140;8.904;2023-07-20T02:10:13;15.20;99.90
11855;DHT22;5987;53.140;8.904;2023-07-20T02:13:17;15.20;99.90
11855;DHT22;5987;53.140;8.904;2023-07-20T02:16:21;15.20;99.90
11855;DHT22;5987;53.140;8.904;2023-07-20T02:19:28;15.20;99.90
11855;DHT22;5987;53.140;8.904;2023-07-20T02:22:33;15.20;99.90
11855;DHT22;5987;53.140;8.904;2023-07-20T02:25:37;15.20;99.90
11855;DHT22;5987;53.140;8.904;2023-07-20T02:28:41;15.20;99.90
11855;DHT22;5987;53.140;8.904;2023-07-20T02:31:45;15.20;99.90
11855;DHT22;5987;53.140;8.904;2023-07-20T02:34:50;15.20;99.90
11855;DHT22;5987;53.140;8.904;2023-07-20T02:37:54;15.30;99.90
11855;DHT22;5987;53.140;8.904;2023-07-20T02:40:57;15.30;99.90
11855;DHT22;5987;53.140;8.904;2023-07-20T02:44:01;15.30;99.90
11855;DHT22;5987;53.140;8.904;2023-07-20T02:47:06;15.30;99.90
11855;DHT22;5987;53.140;8.904;2023-07-20T02:50:11;15.30;99.90
11855;DHT22;5987;53.140;8.904;2023-07-20T02:53:16;15.30;99.90
11855;DHT22;5987;53.140;8.904;2023-07-20T02:56:20;15.30;99.90
11855;DHT22;5987;53.140;8.904;2023-07-20T02:59:25;15.30;99.90
11855;DHT22;5987;53.140;8.904;2023-07-20T03:02:30;15.30;99.90
11855;DHT22;5987;53.140;8.904;2023-07-20T03:05:35;15.30;99.90
11855;DHT22;5987;53.140;8.904;2023-07-20T03:08:40;15.30;99.90
11855;DHT22;5987;53.140;8.904;2023-07-20T03:11:49;15.40;99.90
11855;DHT22;5987;53.140;8.904;2023-07-20T03:14:53;15.40;99.90
11855;DHT22;5987;53.140;8.904;2023-07-20T03:17:59;15.40;99.90
11855;DHT22;5987;53.140;8.904;2023-07-20T03:21:04;15.40;99.90
11855;DHT22;5987;53.140;8.904;2023-07-20T03:24:08;15.30;99.90
11855;DHT22;5987;53.140;8.904;2023-07-20T03:27:11;15.30;99.90
11855;DHT22;5987;53.140;8.904;2023-07-20T03:30:15;15.30;99.90
11855;DHT22;5987;53.140;8.904;2023-07-20T03:33:19;15.10;99.90
11855;DHT22;5987;53.140;8.904;2023-07-20T03:36:24;15.10;99.90
11855;DHT22;5987;53.140;8.904;2023-07-20T03:39:27;15.10;99.90
11855;DHT22;5987;53.140;8.904;2023-07-20T03:42:31;15.10;99.90
11855;DHT22;5987;53.140;8.904;2023-07-20T03:45:34;15.00;99.90
11855;DHT22;5987;53.140;8.904;2023-07-20T03:48:38;15.10;99.90
11855;DHT22;5987;53.140;8.904;2023-07-20T03:51:43;15.10;99.90
11855;DHT22;5987;53.140;8.904;2023-07-20T03:54:46;15.10;99.90
11855;DHT22;5987;53.140;8.904;2023-07-20T03:57:50;15.20;99.90
11855;DHT22;5987;53.140;8.904;2023-07-20T04:00:53;15.20;99.90
11855;DHT22;5987;53.140;8.904;2023-07-20T04:03:57;15.20;99.90
11855;DHT22;5987;53.140;8.904;2023-07-20T04:07:02;15.30;99.90
11855;DHT22;5987;53.140;8.904;2023-07-20T04:10:07;15.30;99.90
11855;DHT22;5987;53.140;8.904;2023-07-20T04:13:11;15.20;99.90
11855;DHT22;5987;53.140;8.904;2023-07-20T04:16:15;15.30;99.90
11855;DHT22;5987;53.140;8.904;2023-07-20T04:19:19;15.30;99.90
11855;DHT22;5987;53.140;8.904;2023-07-20T04:22:24;15.40;99.90
11855;DHT22;5987;53.140;8.904;2023-07-20T04:25:27;15.40;99.90
11855;DHT22;5987;53.140;8.904;2023-07-20T04:28:31;15.50;99.90
11855;DHT22;5987;53.140;8.904;2023-07-20T04:31:35;15.50;99.90
11855;DHT22;5987;53.140;8.904;2023-07-20T04:34:39;15.60;99.90
11855;DHT22;5987;53.140;8.904;2023-07-20T04:37:44;15.50;99.90
11855;DHT22;5987;53.140;8.904;2023-07-20T04:40:49;15.60;99.90
11855;DHT22;5987;53.140;8.904;2023-07-20T04:43:53;15.60;99.90
11855;DHT22;5987;53.140;8.904;2023-07-20T04:46:56;15.60;99.90
11855;DHT22;5987;53.140;8.904;2023-07-20T04:50:00;15.60;99.90
11855;DHT22;5987;53.140;8.904;2023-07-20T04:53:05;15.60;99.90
11855;DHT22;5987;53.140;8.904;2023-07-20T04:56:09;15.60;99.90
11855;DHT22;5987;53.140;8.904;2023-07-20T04:59:13;15.70;99.90
11855;DHT22;5987;53.140;8.904;2023-07-20T05:02:16;15.80;99.90
11855;DHT22;5987;53.140;8.904;2023-07-20T05:05:20;16.20;99.90
11855;DHT22;5987;53.140;8.904;2023-07-20T05:08:25;16.40;99.90
11855;DHT22;5987;53.140;8.904;2023-07-20T05:11:29;16.50;99.90
11855;DHT22;5987;53.140;8.904;2023-07-20T05:14:32;16.80;99.90
11855;DHT22;5987;53.140;8.904;2023-07-20T05:17:36;16.90;99.90
11855;DHT22;5987;53.140;8.904;2023-07-20T05:20:41;16.70;99.90
11855;DHT22;5987;53.140;8.904;2023-07-20T05:23:46;16.70;99.90
11855;DHT22;5987;53.140;8.904;2023-07-20T05:26:49;16.90;99.90
11855;DHT22;5987;53.140;8.904;2023-07-20T05:29:53;17.10;99.90
11855;DHT22;5987;53.140;8.904;2023-07-20T05:32:56;17.30;99.90
11855;DHT22;5987;53.140;8.904;2023-07-20T05:36:00;17.30;99.90
11855;DHT22;5987;53.140;8.904;2023-07-20T05:39:05;17.40;99.90
11855;DHT22;5987;53.140;8.904;2023-07-20T05:42:08;17.60;99.90
11855;DHT22;5987;53.140;8.904;2023-07-20T05:45:12;17.90;99.90
11855;DHT22;5987;53.140;8.904;2023-07-20T05:48:16;17.80;99.90
11855;DHT22;5987;53.140;8.904;2023-07-20T05:51:19;18.00;99.90
11855;DHT22;5987;53.140;8.904;2023-07-20T05:54:25;18.20;99.90
11855;DHT22;5987;53.140;8.904;2023-07-20T05:57:28;18.40;99.90
11855;DHT22;5987;53.140;8.904;2023-07-20T06:00:32;18.50;99.90
11855;DHT22;5987;53.140;8.904;2023-07-20T06:03:36;18.30;99.90
11855;DHT22;5987;53.140;8.904;2023-07-20T06:06:40;18.50;99.90
11855;DHT22;5987;53.140;8.904;2023-07-20T06:09:45;18.50;99.90
11855;DHT22;5987;53.140;8.904;2023-07-20T06:12:48;18.50;99.90
11855;DHT22;5987;53.140;8.904;2023-07-20T06:15:52;18.50;99.90
11855;DHT22;5987;53.140;8.904;2023-07-20T06:18:58;18.40;99.90
11855;DHT22;5987;53.140;8.904;2023-07-20T06:22:03;18.40;99.90
11855;DHT22;5987;53.140;8.904;2023-07-20T06:25:09;18.60;99.90
11855;DHT22;5987;53.140;8.904;2023-07-20T06:28:13;18.80;99.90
11855;DHT22;5987;53.140;8.904;2023-07-20T06:31:17;19.10;99.90
11855;DHT22;5987;53.140;8.904;2023-07-20T06:34:21;19.40;99.90
11855;DHT22;5987;53.140;8.904;2023-07-20T06:37:25;19.20;99.90
11855;DHT22;5987;53.140;8.904;2023-07-20T06:40:30;18.90;99.90
11855;DHT22;5987;53.140;8.904;2023-07-20T06:43:34;18.90;99.90
11855;DHT22;5987;53.140;8.904;2023-07-20T06:46:40;19.00;99.90
11855;DHT22;5987;53.140;8.904;2023-07-20T06:49:44;19.00;99.90
11855;DHT22;5987;53.140;8.904;2023-07-20T06:52:48;18.70;99.90
11855;DHT22;5987;53.140;8.904;2023-07-20T06:55:52;18.60;99.90
11855;DHT22;5987;53.140;8.904;2023-07-20T06:58:56;18.70;99.90
11855;DHT22;5987;53.140;8.904;2023-07-20T07:01:59;18.80;99.90
11855;DHT22;5987;53.140;8.904;2023-07-20T07:05:03;18.90;99.90
11855;DHT22;5987;53.140;8.904;2023-07-20T07:08:11;19.20;99.90
11855;DHT22;5987;53.140;8.904;2023-07-20T07:11:16;19.30;99.90
11855;DHT22;5987;53.140;8.904;2023-07-20T07:14:20;19.50;99.90
11855;DHT22;5987;53.140;8.904;2023-07-20T07:17:25;19.60;99.90
11855;DHT22;5987;53.140;8.904;2023-07-20T07:20:29;19.50;99.90
11855;DHT22;5987;53.140;8.904;2023-07-20T07:23:33;19.50;99.90
11855;DHT22;5987;53.140;8.904;2023-07-20T07:26:38;19.60;99.90
11855;DHT22;5987;53.140;8.904;2023-07-20T07:29:42;19.90;99.90
11855;DHT22;5987;53.140;8.904;2023-07-20T07:32:46;19.90;99.90
11855;DHT22;5987;53.140;8.904;2023-07-20T07:35:50;20.20;99.90
11855;DHT22;5987;53.140;8.904;2023-07-20T07:38:54;20.60;99.90
11855;DHT22;5987;53.140;8.904;2023-07-20T07:42:02;20.70;99.90
11855;DHT22;5987;53.140;8.904;2023-07-20T07:45:09;20.40;99.90
11855;DHT22;5987;53.140;8.904;2023-07-20T07:48:13;19.80;99.90
11855;DHT22;5987;53.140;8.904;2023-07-20T07:51:17;19.70;99.90
11855;DHT22;5987;53.140;8.904;2023-07-20T07:54:21;19.90;99.90
11855;DHT22;5987;53.140;8.904;2023-07-20T07:57:26;20.20;99.90
11855;DHT22;5987;53.140;8.904;2023-07-20T08:00:30;20.40;99.90
11855;DHT22;5987;53.140;8.904;2023-07-20T08:03:33;20.30;99.90
11855;DHT22;5987;53.140;8.904;2023-07-20T08:06:37;20.10;99.90
11855;DHT22;5987;53.140;8.904;2023-07-20T08:09:41;19.90;99.90
11855;DHT22;5987;53.140;8.904;2023-07-20T08:12:46;19.50;99.90
11855;DHT22;5987;53.140;8.904;2023-07-20T08:15:51;19.40;99.90
11855;DHT22;5987;53.140;8.904;2023-07-20T08:18:54;19.40;99.90
11855;DHT22;5987;53.140;8.904;2023-07-20T08:21:58;19.90;99.90
11855;DHT22;5987;53.140;8.904;2023-07-20T08:25:02;19.90;99.90
11855;DHT22;5987;53.140;8.904;2023-07-20T08:28:07;19.80;99.90
11855;DHT22;5987;53.140;8.904;2023-07-20T08:31:11;20.20;99.90
11855;DHT22;5987;53.140;8.904;2023-07-20T08:34:15;20.50;99.90
11855;DHT22;5987;53.140;8.904;2023-07-20T08:37:32;20.70;99.90
11855;DHT22;5987;53.140;8.904;2023-07-20T08:40:40;21.60;99.90
11855;DHT22;5987;53.140;8.904;2023-07-20T08:43:46;21.40;99.90
11855;DHT22;5987;53.140;8.904;2023-07-20T08:46:51;21.40;99.90
11855;DHT22;5987;53.140;8.904;2023-07-20T08:49:57;21.50;99.90
11855;DHT22;5987;53.140;8.904;2023-07-20T08:53:03;21.70;99.90
11855;DHT22;5987;53.140;8.904;2023-07-20T08:56:09;21.60;99.90
11855;DHT22;5987;53.140;8.904;2023-07-20T08:59:17;21.30;99.90
11855;DHT22;5987;53.140;8.904;2023-07-20T09:02:24;21.40;99.90
11855;DHT22;5987;53.140;8.904;2023-07-20T09:05:30;21.40;99.90
11855;DHT22;5987;53.140;8.904;2023-07-20T09:08:38;21.20;99.90
11855;DHT22;5987;53.140;8.904;2023-07-20T09:11:42;21.30;99.90
11855;DHT22;5987;53.140;8.904;2023-07-20T09:14:47;21.60;99.90
11855;DHT22;5987;53.140;8.904;2023-07-20T09:17:52;21.80;99.90
11855;DHT22;5987;53.140;8.904;2023-07-20T09:21:01;21.80;99.90
11855;DHT22;5987;53.140;8.904;2023-07-20T09:24:06;21.60;99.90
11855;DHT22;5987;53.140;8.904;2023-07-20T09:27:10;22.00;99.90
11855;DHT22;5987;53.140;8.904;2023-07-20T09:30:16;21.90;99.90
11855;DHT22;5987;53.140;8.904;2023-07-20T09:33:21;22.00;99.90
11855;DHT22;5987;53.140;8.904;2023-07-20T09:36:29;21.70;99.90
11855;DHT22;5987;53.140;8.904;2023-07-20T09:39:43;21.90;99.90
11855;DHT22;5987;53.140;8.904;2023-07-20T09:42:52;22.30;99.90
11855;DHT22;5987;53.140;8.904;2023-07-20T09:46:06;22.40;99.70
11855;DHT22;5987;53.140;8.904;2023-07-20T09:49:10;21.90;99.90
11855;DHT22;5987;53.140;8.904;2023-07-20T09:52:16;22.00;99.90
11855;DHT22;5987;53.140;8.904;2023-07-20T09:55:26;21.80;99.90
11855;DHT22;5987;53.140;8.904;2023-07-20T09:58:32;21.40;99.90
11855;DHT22;5987;53.140;8.904;2023-07-20T10:01:41;21.20;99.90
11855;DHT22;5987;53.140;8.904;2023-07-20T10:04:48;20.70;99.90
11855;DHT22;5987;53.140;8.904;2023-07-20T10:07:56;20.30;99.90
11855;DHT22;5987;53.140;8.904;2023-07-20T10:11:04;20.00;99.90
11855;DHT22;5987;53.140;8.904;2023-07-20T10:14:13;19.70;99.90
11855;DHT22;5987;53.140;8.904;2023-07-20T10:17:25;19.40;99.90
11855;DHT22;5987;53.140;8.904;2023-07-20T10:20:30;19.10;99.90
11855;DHT22;5987;53.140;8.904;2023-07-20T10:23:36;19.00;99.90
11855;DHT22;5987;53.140;8.904;2023-07-20T10:26:42;19.20;99.90
11855;DHT22;5987;53.140;8.904;2023-07-20T10:29:46;19.30;99.90
11855;DHT22;5987;53.140;8.904;2023-07-20T10:32:53;19.50;99.90
11855;DHT22;5987;53.140;8.904;2023-07-20T10:36:00;19.70;99.90
11855;DHT22;5987;53.140;8.904;2023-07-20T10:39:04;19.90;99.90
11855;DHT22;5987;53.140;8.904;2023-07-20T10:42:08;20.10;99.90
11855;DHT22;5987;53.140;8.904;2023-07-20T10:45:37;20.40;99.90
11855;DHT22;5987;53.140;8.904;2023-07-20T10:49:04;20.50;99.90
11855;DHT22;5987;53.140;8.904;2023-07-20T10:52:10;20.90;99.90
11855;DHT22;5987;53.140;8.904;2023-07-20T10:55:14;21.30;99.90
11855;DHT22;5987;53.140;8.904;2023-07-20T10:58:18;21.40;99.90
11855;DHT22;5987;53.140;8.904;2023-07-20T11:01:29;21.50;99.90
11855;DHT22;5987;53.140;8.904;2023-07-20T11:04:40;21.30;99.90
11855;DHT22;5987;53.140;8.904;2023-07-20T11:07:44;21.40;99.90
11855;DHT22;5987;53.140;8.904;2023-07-20T11:11:20;21.80;99.90
11855;DHT22;5987;53.140;8.904;2023-07-20T11:14:25;21.80;99.90
11855;DHT22;5987;53.140;8.904;2023-07-20T11:17:30;21.90;99.90
11855;DHT22;5987;53.140;8.904;2023-07-20T11:20:37;21.80;99.90
11855;DHT22;5987;53.140;8.904;2023-07-20T11:23:40;21.60;99.90
11855;DHT22;5987;53.140;8.904;2023-07-20T11:26:49;21.60;99.90
11855;DHT22;5987;53.140;8.904;2023-07-20T11:29:53;21.80;99.90
11855;DHT22;5987;53.140;8.904;2023-07-20T11:32:57;22.20;99.90
11855;DHT22;5987;53.140;8.904;2023-07-20T11:36:02;22.30;99.90
11855;DHT22;5987;53.140;8.904;2023-07-20T11:39:28;22.30;99.90
11855;DHT22;5987;53.140;8.904;2023-07-20T11:42:34;21.40;99.90
11855;DHT22;5987;53.140;8.904;2023-07-20T11:45:41;20.80;99.90
11855;DHT22;5987;53.140;8.904;2023-07-20T11:48:45;20.30;99.90
11855;DHT22;5987;53.140;8.904;2023-07-20T11:51:50;20.10;99.90
11855;DHT22;5987;53.140;8.904;2023-07-20T11:54:53;20.00;99.90
11855;DHT22;5987;53.140;8.904;2023-07-20T11:58:02;19.80;99.90
11855;DHT22;5987;53.140;8.904;2023-07-20T12:01:06;19.60;99.90
11855;DHT22;5987;53.140;8.904;2023-07-20T12:04:09;19.60;99.90
11855;DHT22;5987;53.140;8.904;2023-07-20T12:07:14;19.50;99.90
11855;DHT22;5987;53.140;8.904;2023-07-20T12:10:24;19.30;99.90
11855;DHT22;5987;53.140;8.904;2023-07-20T12:13:37;19.60;99.90
11855;DHT22;5987;53.140;8.904;2023-07-20T12:16:41;19.40;99.90
11855;DHT22;5987;53.140;8.904;2023-07-20T12:19:45;19.30;99.90
11855;DHT22;5987;53.140;8.904;2023-07-20T12:22:50;19.40;99.90
11855;DHT22;5987;53.140;8.904;2023-07-20T12:25:56;19.50;99.90
11855;DHT22;5987;53.140;8.904;2023-07-20T12:29:00;19.50;99.90
11855;DHT22;5987;53.140;8.904;2023-07-20T12:32:06;19.60;99.90
11855;DHT22;5987;53.140;8.904;2023-07-20T12:35:10;19.90;99.90
11855;DHT22;5987;53.140;8.904;2023-07-20T12:38:17;20.00;99.90
11855;DHT22;5987;53.140;8.904;2023-07-20T12:41:21;20.30;99.90
11855;DHT22;5987;53.140;8.904;2023-07-20T12:44:25;20.30;99.90
11855;DHT22;5987;53.140;8.904;2023-07-20T12:47:29;20.30;99.90
11855;DHT22;5987;53.140;8.904;2023-07-20T12:50:32;20.20;99.90
11855;DHT22;5987;53.140;8.904;2023-07-20T12:53:38;20.10;99.90
11855;DHT22;5987;53.140;8.904;2023-07-20T12:56:41;20.10;99.90
11855;DHT22;5987;53.140;8.904;2023-07-20T12:59:48;20.20;99.90
11855;DHT22;5987;53.140;8.904;2023-07-20T13:02:52;20.30;99.90
11855;DHT22;5987;53.140;8.904;2023-07-20T13:05:59;20.20;99.90
11855;DHT22;5987;53.140;8.904;2023-07-20T13:09:07;20.40;99.90
11855;DHT22;5987;53.140;8.904;2023-07-20T13:12:11;20.50;99.90
11855;DHT22;5987;53.140;8.904;2023-07-20T13:15:14;20.50;99.90
11855;DHT22;5987;53.140;8.904;2023-07-20T13:18:18;20.60;99.90
11855;DHT22;5987;53.140;8.904;2023-07-20T13:21:21;20.30;99.90
11855;DHT22;5987;53.140;8.904;2023-07-20T13:24:29;20.50;99.90
11855;DHT22;5987;53.140;8.904;2023-07-20T13:27:32;20.60;99.90
11855;DHT22;5987;53.140;8.904;2023-07-20T13:30:36;20.40;99.90
11855;DHT22;5987;53.140;8.904;2023-07-20T13:33:42;20.70;99.90
11855;DHT22;5987;53.140;8.904;2023-07-20T13:36:45;20.90;99.90
11855;DHT22;5987;53.140;8.904;2023-07-20T13:39:51;20.90;99.90
11855;DHT22;5987;53.140;8.904;2023-07-20T13:42:55;21.20;99.90
11855;DHT22;5987;53.140;8.904;2023-07-20T13:45:59;21.20;99.90
11855;DHT22;5987;53.140;8.904;2023-07-20T13:49:03;21.30;99.90
11855;DHT22;5987;53.140;8.904;2023-07-20T13:52:14;21.70;99.90
11855;DHT22;5987;53.140;8.904;2023-07-20T13:55:22;21.90;99.90
11855;DHT22;5987;53.140;8.904;2023-07-20T13:58:28;21.90;99.90
11855;DHT22;5987;53.140;8.904;2023-07-20T14:01:33;21.90;99.90
11855;DHT22;5987;53.140;8.904;2023-07-20T14:04:39;21.50;99.90
11855;DHT22;5987;53.140;8.904;2023-07-20T14:07:43;21.00;99.90
11855;DHT22;5987;53.140;8.904;2023-07-20T14:10:48;20.50;99.90
11855;DHT22;5987;53.140;8.904;2023-07-20T14:13:55;20.30;99.90
11855;DHT22;5987;53.140;8.904;2023-07-20T14:17:00;20.20;99.90
11855;DHT22;5987;53.140;8.904;2023-07-20T14:20:04;20.10;99.90
11855;DHT22;5987;53.140;8.904;2023-07-20T14:23:23;20.60;99.90
11855;DHT22;5987;53.140;8.904;2023-07-20T14:26:29;21.00;99.90
11855;DHT22;5987;53.140;8.904;2023-07-20T14:29:34;21.10;99.90
11855;DHT22;5987;53.140;8.904;2023-07-20T14:32:38;20.70;99.90
11855;DHT22;5987;53.140;8.904;2023-07-20T14:35:42;20.40;99.90
11855;DHT22;5987;53.140;8.904;2023-07-20T14:38:46;20.60;99.90
11855;DHT22;5987;53.140;8.904;2023-07-20T14:41:51;20.70;99.90
11855;DHT22;5987;53.140;8.904;2023-07-20T14:44:55;20.40;99.90
11855;DHT22;5987;53.140;8.904;2023-07-20T14:47:59;20.20;99.90
11855;DHT22;5987;53.140;8.904;2023-07-20T14:51:03;20.10;99.90
11855;DHT22;5987;53.140;8.904;2023-07-20T14:54:07;20.10;99.90
11855;DHT22;5987;53.140;8.904;2023-07-20T14:57:12;20.30;99.90
11855;DHT22;5987;53.140;8.904;2023-07-20T15:00:17;20.50;99.90
11855;DHT22;5987;53.140;8.904;2023-07-20T15:03:21;20.60;99.90
11855;DHT22;5987;53.140;8.904;2023-07-20T15:06:25;20.90;99.90
11855;DHT22;5987;53.140;8.904;2023-07-20T15:09:32;20.90;99.90
11855;DHT22;5987;53.140;8.904;2023-07-20T15:12:37;20.80;99.90
11855;DHT22;5987;53.140;8.904;2023-07-20T15:15:41;20.90;99.90
11855;DHT22;5987;53.140;8.904;2023-07-20T15:18:45;20.90;99.90
11855;DHT22;5987;53.140;8.904;2023-07-20T15:21:49;20.90;99.90
11855;DHT22;5987;53.140;8.904;2023-07-20T15:24:53;20.70;99.90
11855;DHT22;5987;53.140;8.904;2023-07-20T15:27:59;21.10;99.90
11855;DHT22;5987;53.140;8.904;2023-07-20T15:31:04;21.40;99.90
11855;DHT22;5987;53.140;8.904;2023-07-20T15:34:08;21.20;99.90
11855;DHT22;5987;53.140;8.904;2023-07-20T15:37:15;21.30;99.90
11855;DHT22;5987;53.140;8.904;2023-07-20T15:40:19;21.40;99.90
11855;DHT22;5987;53.140;8.904;2023-07-20T15:43:24;21.00;99.90
11855;DHT22;5987;53.140;8.904;2023-07-20T15:46:44;21.10;99.90
11855;DHT22;5987;53.140;8.904;2023-07-20T15:49:51;21.20;99.90
11855;DHT22;5987;53.140;8.904;2023-07-20T15:52:54;21.10;99.90
11855;DHT22;5987;53.140;8.904;2023-07-20T15:55:59;20.90;99.90
11855;DHT22;5987;53.140;8.904;2023-07-20T15:59:05;20.50;99.90
11855;DHT22;5987;53.140;8.904;2023-07-20T16:02:10;20.50;99.90
11855;DHT22;5987;53.140;8.904;2023-07-20T16:05:14;20.40;99.90
11855;DHT22;5987;53.140;8.904;2023-07-20T16:08:18;20.40;99.90
11855;DHT22;5987;53.140;8.904;2023-07-20T16:11:21;20.50;99.90
11855;DHT22;5987;53.140;8.904;2023-07-20T16:14:30;20.50;99.90
11855;DHT22;5987;53.140;8.904;2023-07-20T16:17:54;20.60;99.90
11855;DHT22;5987;53.140;8.904;2023-07-20T16:20:57;20.60;99.90
11855;DHT22;5987;53.140;8.904;2023-07-20T16:24:01;20.50;99.90
11855;DHT22;5987;53.140;8.904;2023-07-20T16:27:06;20.30;99.90
11855;DHT22;5987;53.140;8.904;2023-07-20T16:30:12;20.20;99.90
11855;DHT22;5987;53.140;8.904;2023-07-20T16:33:16;20.20;99.90
11855;DHT22;5987;53.140;8.904;2023-07-20T16:36:19;20.10;99.90
11855;DHT22;5987;53.140;8.904;2023-07-20T16:39:23;20.00;99.90
11855;DHT22;5987;53.140;8.904;2023-07-20T16:42:29;19.70;99.90
11855;DHT22;5987;53.140;8.904;2023-07-20T16:45:36;19.40;99.90
11855;DHT22;5987;53.140;8.904;2023-07-20T16:48:40;19.20;99.90
11855;DHT22;5987;53.140;8.904;2023-07-20T16:51:47;19.00;99.90
11855;DHT22;5987;53.140;8.904;2023-07-20T16:54:50;18.40;99.90
11855;DHT22;5987;53.140;8.904;2023-07-20T16:57:54;18.10;99.90
11855;DHT22;5987;53.140;8.904;2023-07-20T17:01:03;18.10;99.90
11855;DHT22;5987;53.140;8.904;2023-07-20T17:04:08;18.00;99.90
11855;DHT22;5987;53.140;8.904;2023-07-20T17:07:12;17.90;99.90
11855;DHT22;5987;53.140;8.904;2023-07-20T17:10:18;17.90;99.90
11855;DHT22;5987;53.140;8.904;2023-07-20T17:13:21;17.90;99.90
11855;DHT22;5987;53.140;8.904;2023-07-20T17:16:26;17.80;99.90
11855;DHT22;5987;53.140;8.904;2023-07-20T17:19:30;17.70;99.90
11855;DHT22;5987;53.140;8.904;2023-07-20T17:22:34;17.50;99.90
11855;DHT22;5987;53.140;8.904;2023-07-20T17:25:42;17.50;99.90
11855;DHT22;5987;53.140;8.904;2023-07-20T17:28:49;17.40;99.90
11855;DHT22;5987;53.140;8.904;2023-07-20T17:31:54;17.30;99.90
11855;DHT22;5987;53.140;8.904;2023-07-20T17:34:59;17.00;99.90
11855;DHT22;5987;53.140;8.904;2023-07-20T17:38:02;17.10;99.90
11855;DHT22;5987;53.140;8.904;2023-07-20T17:41:09;17.00;99.90
11855;DHT22;5987;53.140;8.904;2023-07-20T17:44:17;16.70;99.90
11855;DHT22;5987;53.140;8.904;2023-07-20T17:47:21;16.70;99.90
11855;DHT22;5987;53.140;8.904;2023-07-20T17:50:25;16.50;99.90
11855;DHT22;5987;53.140;8.904;2023-07-20T17:53:30;16.60;99.90
11855;DHT22;5987;53.140;8.904;2023-07-20T17:56:34;16.60;99.90
11855;DHT22;5987;53.140;8.904;2023-07-20T17:59:37;16.70;99.90
11855;DHT22;5987;53.140;8.904;2023-07-20T18:02:45;16.80;99.90
11855;DHT22;5987;53.140;8.904;2023-07-20T18:05:49;16.90;99.90
11855;DHT22;5987;53.140;8.904;2023-07-20T18:08:53;17.00;99.90
11855;DHT22;5987;53.140;8.904;2023-07-20T18:11:57;17.10;99.90
11855;DHT22;5987;53.140;8.904;2023-07-20T18:15:01;17.10;99.90
11855;DHT22;5987;53.140;8.904;2023-07-20T18:18:08;17.10;99.90
11855;DHT22;5987;53.140;8.904;2023-07-20T18:21:12;17.10;99.90
11855;DHT22;5987;53.140;8.904;2023-07-20T18:24:16;17.00;99.90
11855;DHT22;5987;53.140;8.904;2023-07-20T18:27:19;17.00;99.90
11855;DHT22;5987;53.140;8.904;2023-07-20T18:30:23;17.00;99.90
11855;DHT22;5987;53.140;8.904;2023-07-20T18:33:36;16.90;99.90
11855;DHT22;5987;53.140;8.904;2023-07-20T18:36:41;17.10;99.90
11855;DHT22;5987;53.140;8.904;2023-07-20T18:39:45;17.20;99.90
11855;DHT22;5987;53.140;8.904;2023-07-20T18:42:49;17.20;99.90
11855;DHT22;5987;53.140;8.904;2023-07-20T18:45:53;17.10;99.90
11855;DHT22;5987;53.140;8.904;2023-07-20T18:48:58;17.20;99.90
11855;DHT22;5987;53.140;8.904;2023-07-20T18:52:02;17.30;99.90
11855;DHT22;5987;53.140;8.904;2023-07-20T18:55:06;17.20;99.90
11855;DHT22;5987;53.140;8.904;2023-07-20T18:58:11;17.10;99.90
11855;DHT22;5987;53.140;8.904;2023-07-20T19:01:15;17.00;99.90
11855;DHT22;5987;53.140;8.904;2023-07-20T19:04:20;17.00;99.90
11855;DHT22;5987;53.140;8.904;2023-07-20T19:07:25;17.00;99.90
11855;DHT22;5987;53.140;8.904;2023-07-20T19:10:29;17.00;99.90
11855;DHT22;5987;53.140;8.904;2023-07-20T19:13:36;16.90;99.90
11855;DHT22;5987;53.140;8.904;2023-07-20T19:16:39;16.80;99.90
11855;DHT22;5987;53.140;8.904;2023-07-20T19:19:44;16.60;99.90
11855;DHT22;5987;53.140;8.904;2023-07-20T19:22:48;16.50;99.90
11855;DHT22;5987;53.140;8.904;2023-07-20T19:25:52;16.40;99.90
11855;DHT22;5987;53.140;8.904;2023-07-20T19:28:56;16.40;99.90
11855;DHT22;5987;53.140;8.904;2023-07-20T19:31:59;16.30;99.90
11855;DHT22;5987;53.140;8.904;2023-07-20T19:35:05;16.30;99.90
11855;DHT22;5987;53.140;8.904;2023-07-20T19:38:10;16.20;99.90
11855;DHT22;5987;53.140;8.904;2023-07-20T19:41:14;16.20;99.90
11855;DHT22;5987;53.140;8.904;2023-07-20T19:44:17;16.20;99.90
11855;DHT22;5987;53.140;8.904;2023-07-20T19:47:21;16.00;99.90
11855;DHT22;5987;53.140;8.904;2023-07-20T19:50:26;16.00;99.90